Bridgetown Triathlon 2016 - Results

Date Sunday, July 31, 2016 Location Bridgetown, NS, CA
              Bridgetown Triathlon (Long_Distance_Triathlon)
                 Bridgetown, N.S. July 31st, 2016 Weather:
              Timing & Results by Atlantic Chip Sport timing
                       Race Director Horace Hurlburt
 
                           Age Group Competition
------------------------------------------------------------------------          1900 Meter                        92 Km                            21.1 Km
                                                                Div            ------SWIM------   ----T1----   ------BIKE-------    -----T2----  ------RUN--------
Place   bib  Time   Name                  City         Pr Co    Total  Div     Pl   Time   /100   Pl    Time   Pl Time     Km/Hr    Pl    Time   Pl Time     /Km
------  --- ------- --------------        ------------ -- --    ----- ------   -----------------  -----------  -----------------    -----------  -----------------
    1   146 4:17:51 Corey Deveaux         Sydney River NS CA   1/4    M3039    1   34:18  1:49    1    0:42    1 2:21:03 39.1      1    0:41    2 1:21:08  3:51 
    2   150 4:26:27 Allan MacKenzie       Sydney River NS CA   2/4    M3039    2   34:37  1:50    2    0:54    3 2:25:14 38.0      2    0:45    3 1:24:59  4:02 
    3    34 4:36:44 Greg Lummis           Halifax      NS CA   1/8    M4049    5   41:49  2:13    9    1:32    2 2:22:33 38.7      8    1:25    4 1:29:26  4:15 
    4   129 4:49:39 Martin Larose         Oromocto     NB CA   3/4    M3039    3   34:53  1:51    4    1:14    5 2:39:22 34.6      4    0:53    6 1:33:19  4:26 
    5    17 4:55:17 Bryan Hipson          Yarmouth     NS CA   1/4    M5059    8   48:39  2:34   17    2:05    7 2:42:03 34.1     21    3:44    1 1:18:47  3:45 
    6    18 5:02:42 Richard Lane          Caledonia    NS CA   2/8    M4049    9   49:15  2:36    8    1:27    4 2:33:39 35.9     20    3:12    7 1:35:10  4:31 
    7    90 5:10:44 Kerry Coolen          Bridgewater  NS CA   3/8    M4049    4   41:43  2:12   20    2:23   12 2:53:10 31.9      5    1:08    5 1:32:21  4:23 
    8    57 5:26:53 Mark Campbell         Dartmouth    NS CA   4/8    M4049   11   49:50  2:38    5    1:18    6 2:39:45 34.6      3    0:49   12 1:55:14  5:28 
    9    52 5:36:28 Kevin Doran           Bedford      NS CA   2/4    M5059   15   53:52  2:51    7    1:24   11 2:51:21 32.2      9    1:32   11 1:48:21  5:09 
   10    95 5:36:38 Brian Norman          Halifax      NS CA   5/8    M4049   24 1:09:55  3:41   19    2:16    8 2:45:56 33.3     10    1:37    8 1:36:56  4:36 
   11   109 5:44:05 Isabelle Turner       Oromocto     NB CA   1/2    F2029   10   49:45  2:38   10    1:36   19 3:10:03 29.0      7    1:17    9 1:41:26  4:49 
   12    14 5:47:28 Keith Colter          Boutiliers P NS CA   3/4    M5059   17   56:01  2:57   16    2:03   13 2:58:50 30.9     17    2:25   10 1:48:12  5:08 
   13    76 5:49:14 Jody Mattie           Truro        NS CA   6/8    M4049   19   57:29  3:02    3    1:02    9 2:46:40 33.1      6    1:15   13 2:02:49  5:50 
   14   137 6:05:38 Pierre Laporte        Oromocto     NB CA   4/4    M5059   20   58:51  3:06   12    1:42   10 2:47:04 33.0     15    2:21   19 2:15:42  6:26 
   15    72 6:07:16 Aaron Thibault        Dartmouth    NS CA   7/8    M4049   16   55:35  2:56    6    1:19   16 3:04:20 29.9     11    1:37   14 2:04:27  5:54 
   16    89 6:07:16 Rhonda Cook           Brazil Lake  NS CA   1/3    F5059    7   47:29  2:30   14    1:47   18 3:07:39 29.4     12    1:46   16 2:08:36  6:06 
   17    10 6:11:45 Lori Ann Ross         Hebbville    NS CA   1/2    F3039   14   52:04  2:45   22    3:24   17 3:05:40 29.7     23    4:07   15 2:06:31  6:00 
   18   144 6:17:19 Jarret Gosbee         Sydney       NS CA   1/1    M2029   13   51:36  2:43   18    2:13   14 2:59:49 30.7     13    1:51   20 2:21:53  6:44 
   19    48 6:27:25 Jody Nickerson        Halifax      NS CA   8/8    M4049   22 1:00:39  3:12   11    1:39   15 3:04:19 29.9     24    5:08   18 2:15:41  6:26 
   20   118 6:32:07 Kathryn MacKinnon     Salt Springs NS CA   2/3    F5059   18   56:10  2:58   21    2:51   20 3:16:41 28.1     22    3:51   17 2:12:36  6:18 
   21   134 6:44:19 Sean Ward             Amherst      NS CA   4/4    M3039   12   50:24  2:40   15    2:01   23 3:27:49 26.6     14    2:10   21 2:21:57  6:44 
   22    49 6:48:23 Lisa McCutcheon       Southampton  NB CA   3/3    F5059   21 1:00:14  3:11   13    1:45   21 3:21:01 27.5     18    2:54   22 2:22:31  6:46 
   23    32 7:04:58 Nicole Beatty         Halifax      NS CA   2/2    F3039   23 1:01:48  3:16   24    4:52   22 3:27:41 26.6     19    3:02   23 2:27:35  7:00 
   24    25 7:27:59 Elizabeth (beth) Hami Halifax      NS CA   2/2    F2029    6   44:54  2:22   23    3:32   24 3:42:33 24.8     16    2:22   24 2:54:40  8:17